N208BR KHND-
Flight info
| Callsign | N208BR |
|---|---|
| Flight time | N/A |
| Altitude | VFR |
| Route | VFR EAST |
| Aircraft | BE58/L-VGD/C |
Departure
| Time | 2026-04-25 23:37 |
|---|---|
| Airport | Henderson Executive Airport (KHND) |
Arrival
| Time | N/A |
|---|---|
| Airport | - |
| Time | Latitude | Longitude | Altitude | Speed | Heading |
|---|---|---|---|---|---|
| 2026-04-25 23:30 | 35.97308 | -115.13736 | 2436 ft | 0 kts | 181° |
| 2026-04-25 23:34 | 35.97306 | -115.13736 | 2436 ft | 0 kts | 182° |
| 2026-04-25 23:34 | 35.97292 | -115.13695 | 2437 ft | 6 kts | 50° |
| 2026-04-25 23:34 | 35.97412 | -115.13695 | 2433 ft | 29 kts | 360° |
| 2026-04-25 23:34 | 35.97633 | -115.13692 | 2422 ft | 31 kts | 360° |
| 2026-04-25 23:35 | 35.97875 | -115.13689 | 2409 ft | 37 kts | 4° |
| 2026-04-25 23:35 | 35.98057 | -115.13674 | 2400 ft | 14 kts | 20° |
| 2026-04-25 23:35 | 35.98084 | -115.13609 | 2400 ft | 0 kts | 96° |
| 2026-04-25 23:36 | 35.98061 | -115.13536 | 2400 ft | 13 kts | 169° |
| 2026-04-25 23:36 | 35.98025 | -115.13534 | 2402 ft | 22 kts | 177° |
| 2026-04-25 23:37 | 35.97565 | -115.13539 | 2426 ft | 103 kts | 181° |
| 2026-04-25 23:37 | 35.96721 | -115.13543 | 2603 ft | 133 kts | 181° |
| 2026-04-25 23:37 | 35.95749 | -115.13529 | 2945 ft | 147 kts | 175° |
| 2026-04-25 23:37 | 35.94816 | -115.12970 | 3213 ft | 158 kts | 131° |
| 2026-04-25 23:38 | 35.94569 | -115.12121 | 3254 ft | 166 kts | 88° |
| 2026-04-25 23:38 | 35.95102 | -115.10908 | 3412 ft | 172 kts | 34° |
| 2026-04-25 23:38 | 35.96221 | -115.10313 | 3477 ft | 179 kts | 19° |
| 2026-04-25 23:38 | 35.97419 | -115.09794 | 3511 ft | 182 kts | 18° |
| 2026-04-25 23:39 | 35.98941 | -115.08944 | 3601 ft | 186 kts | 44° |
| 2026-04-25 23:39 | 35.99425 | -115.08009 | 3326 ft | 204 kts | 71° |
| 2026-04-25 23:39 | 35.99309 | -115.06355 | 3384 ft | 192 kts | 120° |
| 2026-04-25 23:39 | 35.98701 | -115.04944 | 3552 ft | 187 kts | 123° |
| 2026-04-25 23:40 | 35.98059 | -115.03571 | 3657 ft | 183 kts | 122° |
| 2026-04-25 23:40 | 35.97459 | -115.02208 | 3778 ft | 178 kts | 123° |
| 2026-04-25 23:40 | 35.96531 | -115.01217 | 3613 ft | 184 kts | 153° |
| 2026-04-25 23:40 | 35.95427 | -115.00391 | 3584 ft | 186 kts | 152° |
| 2026-04-25 23:41 | 35.94368 | -114.99506 | 3584 ft | 187 kts | 134° |
| 2026-04-25 23:41 | 35.93549 | -114.97562 | 3499 ft | 195 kts | 118° |
| 2026-04-25 23:41 | 35.93187 | -114.96531 | 3512 ft | 194 kts | 117° |
| 2026-04-25 23:41 | 35.92710 | -114.94977 | 3497 ft | 194 kts | 111° |
| 2026-04-25 23:42 | 35.92313 | -114.93437 | 3482 ft | 188 kts | 109° |
| 2026-04-25 23:42 | 35.91931 | -114.91882 | 3306 ft | 191 kts | 107° |
| 2026-04-25 23:42 | 35.91607 | -114.90320 | 3271 ft | 188 kts | 103° |
| 2026-04-25 23:42 | 35.91579 | -114.88697 | 3165 ft | 193 kts | 79° |
| 2026-04-25 23:43 | 35.91881 | -114.87092 | 3113 ft | 192 kts | 76° |
| 2026-04-25 23:43 | 35.92272 | -114.85523 | 3034 ft | 191 kts | 72° |
| 2026-04-25 23:43 | 35.92753 | -114.83979 | 2927 ft | 196 kts | 65° |
| 2026-04-25 23:43 | 35.93234 | -114.82424 | 2839 ft | 194 kts | 68° |
| 2026-04-25 23:44 | 35.93954 | -114.81059 | 2826 ft | 187 kts | 40° |
| 2026-04-25 23:44 | 35.94994 | -114.80193 | 2870 ft | 180 kts | 31° |
| 2026-04-25 23:44 | 35.96038 | -114.79448 | 3056 ft | 171 kts | 24° |
| 2026-04-25 23:44 | 35.97178 | -114.79145 | 3076 ft | 167 kts | 354° |
| 2026-04-25 23:45 | 35.98329 | -114.79358 | 3015 ft | 170 kts | 347° |
| 2026-04-25 23:45 | 35.99482 | -114.79601 | 2966 ft | 171 kts | 348° |
| 2026-04-25 23:45 | 36.00626 | -114.79391 | 2928 ft | 177 kts | 39° |
| 2026-04-25 23:45 | 36.01260 | -114.78078 | 2845 ft | 183 kts | 65° |
| 2026-04-25 23:46 | 36.01784 | -114.76660 | 2798 ft | 183 kts | 65° |
| 2026-04-25 23:46 | 36.02422 | -114.75287 | 2606 ft | 191 kts | 43° |
| 2026-04-25 23:46 | 36.03551 | -114.74423 | 2513 ft | 189 kts | 26° |
| 2026-04-25 23:46 | 36.04685 | -114.73691 | 2631 ft | 181 kts | 25° |
| 2026-04-25 23:47 | 36.05809 | -114.73020 | 2671 ft | 178 kts | 23° |
| 2026-04-25 23:47 | 36.06916 | -114.72324 | 2679 ft | 177 kts | 26° |
| 2026-04-25 23:47 | 36.08010 | -114.71592 | 2630 ft | 183 kts | 29° |
| 2026-04-25 23:47 | 36.09101 | -114.70802 | 2629 ft | 179 kts | 28° |
| 2026-04-25 23:48 | 36.10167 | -114.70028 | 2665 ft | 178 kts | 28° |
| 2026-04-25 23:48 | 36.11162 | -114.69116 | 2640 ft | 182 kts | 53° |
| 2026-04-25 23:48 | 36.11845 | -114.67812 | 2603 ft | 184 kts | 54° |
| 2026-04-25 23:48 | 36.12580 | -114.66525 | 2667 ft | 180 kts | 54° |
| 2026-04-25 23:49 | 36.13004 | -114.65123 | 2816 ft | 175 kts | 88° |
| 2026-04-25 23:49 | 36.13088 | -114.63611 | 2820 ft | 178 kts | 84° |
| 2026-04-25 23:49 | 36.13184 | -114.62078 | 2760 ft | 177 kts | 85° |
| 2026-04-25 23:49 | 36.13585 | -114.60662 | 2751 ft | 177 kts | 62° |
| 2026-04-25 23:50 | 36.14178 | -114.59335 | 2795 ft | 174 kts | 62° |
| 2026-04-25 23:50 | 36.14771 | -114.58026 | 2736 ft | 179 kts | 59° |
| 2026-04-25 23:50 | 36.15118 | -114.56607 | 2684 ft | 176 kts | 88° |
| 2026-04-25 23:50 | 36.15188 | -114.55116 | 2710 ft | 169 kts | 91° |
| 2026-04-25 23:51 | 36.15276 | -114.53654 | 2576 ft | 175 kts | 87° |
| 2026-04-25 23:51 | 36.15382 | -114.52143 | 2607 ft | 176 kts | 89° |
| 2026-04-25 23:51 | 36.15506 | -114.50644 | 2632 ft | 175 kts | 85° |
| 2026-04-25 23:51 | 36.15659 | -114.49134 | 2596 ft | 179 kts | 84° |
| 2026-04-25 23:52 | 36.15885 | -114.47636 | 2714 ft | 175 kts | 79° |
| 2026-04-25 23:52 | 36.16177 | -114.46135 | 2643 ft | 184 kts | 76° |
| 2026-04-25 23:52 | 36.16664 | -114.44718 | 2712 ft | 182 kts | 46° |
| 2026-04-25 23:52 | 36.17719 | -114.43846 | 2715 ft | 183 kts | 27° |
| 2026-04-25 23:53 | 36.18840 | -114.43127 | 2675 ft | 185 kts | 24° |
| 2026-04-25 23:53 | 36.19947 | -114.42378 | 2778 ft | 178 kts | 31° |
| 2026-04-25 23:53 | 36.20996 | -114.41538 | 2713 ft | 182 kts | 27° |
| 2026-04-25 23:53 | 36.22152 | -114.40852 | 2610 ft | 185 kts | 22° |
| 2026-04-25 23:54 | 36.23324 | -114.40268 | 2676 ft | 179 kts | 20° |
| 2026-04-25 23:54 | 36.24483 | -114.39690 | 2733 ft | 177 kts | 19° |
| 2026-04-25 23:54 | 36.25635 | -114.39213 | 2787 ft | 174 kts | 13° |
| 2026-04-25 23:54 | 36.26832 | -114.38814 | 2701 ft | 180 kts | 12° |
| 2026-04-25 23:55 | 36.28023 | -114.38393 | 2825 ft | 175 kts | 12° |
| 2026-04-25 23:55 | 36.29196 | -114.38023 | 2912 ft | 175 kts | 10° |
| 2026-04-25 23:55 | 36.30387 | -114.37681 | 2896 ft | 178 kts | 8° |
| 2026-04-25 23:55 | 36.31594 | -114.37407 | 2954 ft | 177 kts | 7° |
| 2026-04-25 23:56 | 36.32829 | -114.37096 | 2884 ft | 183 kts | 8° |
| 2026-04-25 23:56 | 36.34066 | -114.36843 | 3024 ft | 176 kts | 5° |
| 2026-04-25 23:56 | 36.35289 | -114.36638 | 2983 ft | 183 kts | 4° |
| 2026-04-25 23:56 | 36.36555 | -114.36463 | 3004 ft | 180 kts | 3° |
| 2026-04-25 23:57 | 36.37779 | -114.36251 | 3024 ft | 180 kts | 9° |
| 2026-04-25 23:57 | 36.39008 | -114.35847 | 2991 ft | 181 kts | 13° |
| 2026-04-25 23:57 | 36.40203 | -114.35526 | 3111 ft | 174 kts | 7° |
| 2026-04-25 23:57 | 36.41419 | -114.35295 | 3079 ft | 176 kts | 6° |
| 2026-04-25 23:58 | 36.42594 | -114.35128 | 3169 ft | 171 kts | 357° |
| 2026-04-25 23:58 | 36.43765 | -114.35384 | 3110 ft | 174 kts | 338° |
| 2026-04-25 23:58 | 36.44885 | -114.35960 | 3043 ft | 173 kts | 332° |
| 2026-04-25 23:58 | 36.45967 | -114.36550 | 3063 ft | 169 kts | 332° |
| 2026-04-25 23:59 | 36.47021 | -114.37174 | 3084 ft | 168 kts | 329° |
| 2026-04-25 23:59 | 36.48085 | -114.37817 | 3068 ft | 171 kts | 329° |
| 2026-04-25 23:59 | 36.49170 | -114.38450 | 2954 ft | 176 kts | 330° |
| 2026-04-25 23:59 | 36.50273 | -114.39124 | 2905 ft | 176 kts | 330° |
| 2026-04-26 00:00 | 36.51360 | -114.39760 | 2857 ft | 176 kts | 330° |
| 2026-04-26 00:00 | 36.52453 | -114.40416 | 2783 ft | 172 kts | 334° |
| 2026-04-26 00:00 | 36.53537 | -114.40990 | 2729 ft | 165 kts | 336° |
| 2026-04-26 00:00 | 36.54590 | -114.41496 | 2623 ft | 160 kts | 337° |
| 2026-04-26 00:01 | 36.55628 | -114.41926 | 2594 ft | 153 kts | 341° |
| 2026-04-26 00:01 | 36.56584 | -114.42319 | 2610 ft | 139 kts | 338° |
| 2026-04-26 00:01 | 36.57495 | -114.42679 | 2542 ft | 135 kts | 339° |
| 2026-04-26 00:01 | 36.58374 | -114.42980 | 2561 ft | 126 kts | 341° |
| 2026-04-26 00:02 | 36.59174 | -114.43253 | 2403 ft | 114 kts | 340° |
| 2026-04-26 00:02 | 36.59890 | -114.43666 | 2159 ft | 116 kts | 304° |
| 2026-04-26 00:02 | 36.60017 | -114.44558 | 2056 ft | 105 kts | 250° |
| 2026-04-26 00:02 | 36.59643 | -114.45305 | 1975 ft | 103 kts | 225° |
| 2026-04-26 00:03 | 36.59005 | -114.45676 | 1858 ft | 106 kts | 181° |
| 2026-04-26 00:03 | 36.58319 | -114.45386 | 1627 ft | 104 kts | 157° |
| 2026-04-26 00:03 | 36.57696 | -114.44952 | 1458 ft | 99 kts | 155° |
| 2026-04-26 00:03 | 36.57123 | -114.44554 | 1367 ft | 74 kts | 152° |
| 2026-04-26 00:04 | 36.56953 | -114.44432 | 1364 ft | 13 kts | 150° |